Creighton, Missouri
Current Conditions -  °F | °C
As of 2:15 PM on Saturday 25 Oct 2014 (Local Time) from KGLY Reporting Station
Haze Haze  
Wind Chill: 26°   Ceiling: Unl
Heat Index: 27°   Visibility: 1mi
Dew Point: 18°   Wind: 0mph
Humidity: 61%   Direction: NA
Pressure: 30.04"   Gusts: NA
Location:  38.49°N, 94.07°W
Report Text: KGLY 251915Z AUTO 00000KT 1SM HZ CLR 26/18 A3004 RMK AO2
Loading
Personal Weather Stations






























Interactive Weather Map
Tropical Storm Tracking
New forecast layout! Learn more

10-Day Weather Forecast

Advertisements
Track Severe Weather on mobile